createdAt,value
2023-01-21T00:01:52.496Z,20.77
2023-01-21T00:04:20.405Z,21.25
2023-01-21T00:06:49.247Z,23.48
2023-01-21T00:09:18.507Z,22.70
2023-01-21T00:11:46.420Z,18.33
2023-01-21T00:14:14.312Z,25.48
2023-01-21T00:16:42.249Z,17.80
2023-01-21T00:19:10.306Z,23.15
2023-01-21T00:21:38.268Z,20.60
2023-01-21T00:24:06.443Z,22.10
2023-01-21T00:26:35.693Z,21.98
2023-01-21T00:29:03.564Z,17.88
2023-01-21T00:31:31.688Z,16.67
2023-01-21T00:33:59.622Z,19.27
2023-01-21T00:36:30.263Z,19.65
2023-01-21T00:38:58.470Z,19.63
2023-01-21T00:41:26.531Z,20.30
2023-01-21T00:43:55.780Z,21.75
2023-01-21T00:46:23.644Z,21.20
2023-01-21T00:48:51.588Z,17.65
2023-01-21T00:51:19.528Z,15.32
2023-01-21T00:53:47.439Z,15.90
2023-01-21T00:56:15.376Z,15.95
2023-01-21T00:58:44.311Z,19.63
2023-01-21T01:01:15.657Z,17.58
2023-01-21T01:03:44.442Z,20.77
2023-01-21T01:06:14.660Z,17.45
2023-01-21T01:08:42.899Z,18.15
2023-01-21T01:11:11.279Z,16.10
2023-01-21T01:13:39.851Z,15.45
2023-01-21T01:16:07.970Z,24.33
2023-01-21T01:18:38.450Z,17.58
2023-01-21T01:21:07.861Z,17.13
2023-01-21T01:23:36.007Z,17.52
2023-01-21T01:26:07.387Z,17.45
2023-01-21T01:28:36.204Z,13.70
2023-01-21T01:31:06.553Z,18.58
2023-01-21T01:33:34.937Z,16.23
2023-01-21T01:36:04.970Z,15.80
2023-01-21T01:38:34.808Z,14.07
2023-01-21T01:41:03.128Z,13.35
2023-01-21T01:43:57.431Z,11.10
2023-01-21T01:46:27.296Z,15.75
2023-01-21T01:49:01.520Z,13.98
2023-01-21T01:51:40.233Z,17.58
2023-01-21T01:54:09.783Z,15.30
2023-01-21T01:56:41.304Z,14.15
2023-01-21T01:59:09.201Z,16.52
2023-01-21T02:01:37.917Z,21.33
2023-01-21T02:04:09.407Z,18.27
2023-01-21T02:06:39.570Z,13.95
2023-01-21T02:09:08.394Z,18.80
2023-01-21T02:11:38.229Z,18.33
2023-01-21T02:14:06.626Z,18.55
2023-01-21T02:16:52.879Z,21.70
2023-01-21T02:19:57.227Z,23.50
2023-01-21T02:22:33.496Z,21.50
2023-01-21T02:25:31.085Z,21.15
2023-01-21T02:28:28.170Z,27.15
2023-01-21T02:31:16.865Z,29.45
2023-01-21T02:33:56.471Z,27.52
2023-01-21T02:36:37.152Z,27.42
2023-01-21T02:39:13.797Z,30.17
2023-01-21T02:41:57.337Z,29.58
2023-01-21T02:44:33.301Z,31.35
2023-01-21T02:47:07.929Z,26.75
2023-01-21T02:49:41.222Z,26.35
2023-01-21T02:52:09.398Z,29.85
2023-01-21T02:54:55.189Z,25.02
2023-01-21T02:57:36.146Z,27.30
2023-01-21T03:00:10.964Z,30.63
2023-01-21T03:03:03.625Z,26.63
2023-01-21T03:05:46.653Z,33.58
2023-01-21T03:08:21.713Z,27.02
2023-01-21T03:10:56.614Z,25.00
2023-01-21T03:13:51.626Z,23.00
2023-01-21T03:16:42.666Z,24.70
2023-01-21T03:19:14.657Z,24.17
2023-01-21T03:21:44.093Z,21.52
2023-01-21T03:24:14.614Z,20.83
2023-01-21T03:26:46.802Z,21.83
2023-01-21T03:29:19.301Z,22.13
2023-01-21T03:31:51.795Z,11.80
2023-01-21T03:34:21.415Z,22.88
2023-01-21T03:36:56.437Z,20.13
2023-01-21T03:39:34.693Z,27.45
2023-01-21T03:42:03.667Z,26.95
2023-01-21T03:44:31.657Z,23.83
2023-01-21T03:47:04.863Z,21.08
2023-01-21T03:52:06.827Z,24.55
2023-01-21T03:54:34.828Z,26.10
2023-01-21T03:57:02.695Z,21.17
2023-01-21T03:59:30.571Z,23.38
2023-01-21T04:01:58.516Z,20.00
2023-01-21T04:04:26.415Z,17.88
2023-01-21T04:06:54.338Z,21.63
2023-01-21T04:09:23.563Z,21.05
2023-01-21T04:11:51.430Z,18.60
2023-01-21T04:14:19.297Z,20.55
2023-01-21T04:16:47.674Z,22.88
2023-01-21T04:19:15.517Z,18.83
2023-01-21T04:21:43.416Z,15.70
2023-01-21T04:24:11.439Z,16.92
2023-01-21T04:26:40.683Z,20.02
2023-01-21T04:29:08.611Z,19.08
2023-01-21T04:31:36.522Z,17.30
2023-01-21T04:34:04.542Z,13.77
2023-01-21T04:36:32.494Z,14.50
2023-01-21T04:39:00.342Z,13.90
2023-01-21T04:41:28.481Z,12.18
2023-01-21T04:43:57.749Z,13.98
2023-01-21T04:46:25.703Z,13.85
2023-01-21T04:48:53.623Z,12.98
2023-01-21T04:51:21.651Z,12.27
2023-01-21T04:53:49.586Z,14.95
2023-01-21T04:56:17.454Z,15.13
2023-01-21T04:58:45.300Z,16.38
2023-01-21T05:01:14.578Z,17.38
2023-01-21T05:03:42.488Z,15.55
2023-01-21T05:06:10.469Z,15.90
2023-01-21T05:08:38.431Z,14.50
2023-01-21T05:11:08.568Z,14.50
2023-01-21T05:13:36.471Z,12.75
2023-01-21T05:16:05.771Z,16.70
2023-01-21T05:18:35.159Z,19.55
2023-01-21T05:21:03.084Z,11.45
2023-01-21T05:23:31.045Z,13.98
2023-01-21T05:25:58.943Z,14.85
2023-01-21T05:28:27.065Z,12.45
2023-01-21T05:30:55.047Z,13.38
2023-01-21T05:33:26.340Z,13.18
2023-01-21T05:35:55.675Z,15.75
2023-01-21T05:38:23.589Z,13.38
2023-01-21T05:40:51.492Z,15.90
2023-01-21T05:43:19.360Z,16.27
2023-01-21T05:45:47.658Z,18.58
2023-01-21T05:48:15.541Z,17.48
2023-01-21T05:50:43.449Z,12.52
2023-01-21T05:53:12.704Z,13.00
2023-01-21T05:55:40.901Z,18.73
2023-01-21T05:58:09.026Z,17.30
2023-01-21T06:00:36.908Z,12.98
2023-01-21T06:03:05.336Z,14.27
2023-01-21T06:05:33.178Z,22.48
2023-01-21T06:08:01.070Z,16.65
2023-01-21T06:10:30.344Z,13.80
2023-01-21T06:12:58.255Z,13.63
2023-01-21T06:15:26.690Z,19.70
2023-01-21T06:17:54.812Z,14.15
2023-01-21T06:20:23.003Z,16.02
2023-01-21T06:22:50.940Z,19.67
2023-01-21T06:25:18.831Z,15.38
2023-01-21T06:27:48.062Z,16.60
2023-01-21T06:30:16.534Z,17.77
2023-01-21T06:32:44.559Z,18.80
2023-01-21T06:35:12.410Z,19.95
2023-01-21T06:37:40.257Z,14.77
2023-01-21T06:40:09.334Z,19.27
2023-01-21T06:42:37.247Z,20.83
2023-01-21T06:45:07.891Z,21.50
2023-01-21T06:47:36.393Z,22.52
2023-01-21T06:50:04.456Z,22.17
2023-01-21T06:52:32.322Z,19.40
2023-01-21T06:55:00.264Z,20.35
2023-01-21T06:57:28.164Z,26.67
2023-01-21T06:59:56.076Z,19.98
2023-01-21T07:02:25.396Z,27.00
2023-01-21T07:04:53.317Z,24.30
2023-01-21T07:07:21.191Z,22.80
2023-01-21T07:09:49.132Z,24.15
2023-01-21T07:12:17.033Z,25.45
2023-01-21T07:14:44.982Z,25.60
2023-01-21T07:17:12.995Z,26.65
2023-01-21T07:19:42.238Z,25.65
2023-01-21T07:22:10.140Z,27.38
2023-01-21T07:24:38.129Z,25.13
2023-01-21T07:27:06.713Z,30.35
2023-01-21T07:29:34.666Z,25.73
2023-01-21T07:32:02.962Z,29.25
2023-01-21T07:34:30.950Z,30.58
2023-01-21T07:37:00.295Z,24.75
2023-01-21T07:39:28.175Z,25.40
2023-01-21T07:41:56.034Z,28.73
2023-01-21T07:44:23.984Z,27.83
2023-01-21T07:46:51.941Z,26.98
2023-01-21T07:49:19.910Z,29.70
2023-01-21T07:51:48.840Z,23.67
2023-01-21T07:54:18.068Z,27.58
2023-01-21T07:56:46.503Z,28.10
2023-01-21T07:59:15.133Z,26.45
2023-01-21T08:01:43.241Z,27.67
2023-01-21T08:04:11.168Z,25.17
2023-01-21T08:06:41.310Z,23.90
2023-01-21T08:09:09.558Z,24.90
2023-01-21T08:11:38.793Z,26.17
2023-01-21T08:14:06.690Z,24.00
2023-01-21T08:16:34.712Z,25.75
2023-01-21T08:19:02.647Z,24.88
2023-01-21T08:21:30.579Z,20.75
2023-01-21T08:23:58.483Z,21.65
2023-01-21T08:26:26.348Z,22.45
2023-01-21T08:28:56.095Z,24.85
2023-01-21T08:31:24.090Z,21.77
2023-01-21T08:33:51.966Z,23.77
2023-01-21T08:36:19.893Z,22.80
2023-01-21T08:38:48.810Z,24.23
2023-01-21T08:41:17.776Z,21.70
2023-01-21T08:43:45.729Z,22.42
2023-01-21T08:46:15.068Z,22.38
2023-01-21T08:48:42.950Z,23.73
2023-01-21T08:51:11.112Z,23.77
2023-01-21T08:53:39.074Z,22.15
2023-01-21T08:56:07.492Z,21.10
2023-01-21T08:58:35.403Z,21.85
2023-01-21T09:01:07.929Z,26.90
2023-01-21T09:03:37.661Z,22.67
2023-01-21T09:06:07.145Z,21.75
2023-01-21T09:08:36.405Z,19.52
2023-01-21T09:11:06.785Z,24.63
2023-01-21T09:13:37.169Z,23.17
2023-01-21T09:16:09.617Z,23.67
2023-01-21T09:18:42.844Z,23.88
2023-01-21T09:23:44.443Z,22.00
2023-01-21T09:26:15.777Z,24.15
2023-01-21T09:28:45.412Z,20.50
2023-01-21T09:31:15.013Z,22.63
2023-01-21T09:33:46.178Z,21.98
2023-01-21T09:36:15.827Z,21.42
2023-01-21T09:38:43.847Z,21.35
2023-01-21T09:41:23.691Z,22.77
2023-01-21T09:44:00.065Z,23.88
2023-01-21T09:46:34.667Z,22.45
2023-01-21T09:49:07.212Z,23.10
2023-01-21T09:51:46.618Z,23.83
2023-01-21T09:54:20.743Z,23.17
2023-01-21T09:57:11.497Z,26.35
2023-01-21T09:59:52.126Z,27.23
2023-01-21T10:02:29.623Z,30.25
2023-01-21T10:05:18.287Z,26.42
2023-01-21T10:07:54.588Z,25.45
2023-01-21T10:10:30.444Z,25.25
2023-01-21T10:13:15.355Z,26.35
2023-01-21T10:15:52.742Z,21.40
2023-01-21T10:18:26.850Z,25.23
2023-01-21T10:20:59.896Z,29.23
2023-01-21T10:23:33.096Z,28.45
2023-01-21T10:28:31.575Z,24.13
2023-01-21T10:31:04.127Z,24.50
2023-01-21T10:33:34.033Z,22.38
2023-01-21T10:36:20.975Z,22.60
2023-01-21T10:38:57.586Z,21.55
2023-01-21T10:41:38.373Z,20.38
2023-01-21T10:44:19.176Z,21.95
2023-01-21T10:46:53.268Z,21.35
2023-01-21T10:49:31.650Z,20.90
2023-01-21T10:52:07.511Z,23.90
2023-01-21T10:54:48.699Z,22.42
2023-01-21T10:57:29.839Z,18.05
2023-01-21T11:00:01.363Z,20.23
2023-01-21T11:02:32.028Z,18.90
2023-01-21T11:05:03.269Z,21.42
2023-01-21T11:07:37.956Z,21.33
2023-01-21T11:10:07.835Z,21.83
2023-01-21T11:12:36.088Z,19.73
2023-01-21T11:15:14.291Z,18.35
2023-01-21T11:17:45.496Z,19.98
2023-01-21T11:20:23.540Z,20.88
2023-01-21T11:22:52.829Z,18.75
2023-01-21T11:25:32.259Z,18.33
2023-01-21T11:28:00.129Z,19.55
2023-01-21T11:30:49.099Z,19.33
2023-01-21T11:33:26.961Z,17.48
2023-01-21T11:35:56.283Z,15.43
2023-01-21T11:38:33.087Z,19.40
2023-01-21T11:41:03.303Z,20.05
2023-01-21T11:43:36.511Z,17.05
2023-01-21T11:48:50.913Z,19.52
2023-01-21T11:51:18.937Z,17.88
2023-01-21T11:53:48.221Z,15.15
2023-01-21T11:56:17.025Z,18.80
2023-01-21T11:58:45.008Z,19.35
2023-01-21T12:01:22.589Z,19.58
2023-01-21T12:03:53.682Z,20.05
2023-01-21T12:06:24.351Z,17.45
2023-01-21T12:08:57.110Z,17.35
2023-01-21T12:11:28.958Z,19.73
2023-01-21T12:14:03.455Z,15.00
2023-01-21T12:16:36.408Z,20.20
2023-01-21T12:19:19.557Z,15.85
2023-01-21T12:22:09.810Z,14.43
2023-01-21T12:25:01.984Z,14.90
2023-01-21T12:27:38.306Z,14.30
2023-01-21T12:30:17.847Z,19.05
2023-01-21T12:32:49.834Z,16.65
2023-01-21T12:35:25.232Z,15.00
2023-01-21T12:38:00.063Z,12.07
2023-01-21T12:40:34.395Z,15.00
2023-01-21T12:43:09.552Z,13.05
2023-01-21T12:45:40.996Z,17.92
2023-01-21T12:48:18.171Z,12.60
2023-01-21T12:50:52.524Z,10.48
2023-01-21T12:53:27.687Z,11.98
2023-01-21T12:56:15.500Z,16.27
2023-01-21T12:58:47.552Z,10.88
2023-01-21T13:01:20.616Z,16.77
2023-01-21T13:03:58.121Z,10.52
2023-01-21T13:06:51.957Z,14.98
2023-01-21T13:09:30.296Z,11.52
2023-01-21T13:12:04.651Z,11.30
2023-01-21T13:14:37.205Z,9.38
2023-01-21T13:17:12.486Z,11.60
2023-01-21T13:19:40.430Z,9.85
2023-01-21T13:22:19.187Z,11.15
2023-01-21T13:25:05.742Z,8.30
2023-01-21T13:27:44.233Z,10.18
2023-01-21T13:30:24.729Z,12.35
2023-01-21T13:33:00.199Z,10.20
2023-01-21T13:35:38.703Z,9.65
2023-01-21T13:38:16.041Z,10.65
2023-01-21T13:40:54.605Z,9.82
2023-01-21T13:43:44.159Z,10.57
2023-01-21T13:46:26.127Z,9.88
2023-01-21T13:49:06.285Z,7.80
2023-01-21T13:51:59.180Z,12.27
2023-01-21T13:54:52.763Z,13.57
2023-01-21T13:57:36.130Z,8.75
2023-01-21T14:00:12.800Z,10.05
2023-01-21T14:02:48.001Z,9.18
2023-01-21T14:05:22.630Z,9.65
2023-01-21T14:07:55.825Z,9.63
2023-01-21T14:13:20.020Z,8.75
2023-01-21T14:16:02.548Z,6.95
2023-01-21T14:18:57.748Z,8.90
2023-01-21T14:21:52.063Z,8.88
2023-01-21T14:24:34.961Z,7.60
2023-01-21T14:27:14.955Z,8.05
2023-01-21T14:29:46.735Z,8.43
2023-01-21T14:32:23.340Z,6.72
2023-01-21T14:35:03.658Z,7.45
2023-01-21T14:37:36.108Z,5.38
2023-01-21T14:40:17.295Z,4.37
2023-01-21T14:42:49.134Z,7.68
2023-01-21T14:45:20.486Z,8.23
2023-01-21T14:47:51.820Z,8.82
2023-01-21T14:50:46.441Z,4.72
2023-01-21T14:53:21.542Z,9.27
2023-01-21T14:56:08.589Z,9.05
2023-01-21T14:58:37.865Z,4.45
2023-01-21T15:01:07.990Z,5.13
2023-01-21T15:03:49.181Z,6.38
2023-01-21T15:06:21.260Z,5.20
2023-01-21T15:08:52.531Z,8.23
2023-01-21T15:11:22.877Z,6.20
2023-01-21T15:14:04.008Z,5.10
2023-01-21T15:16:36.797Z,10.77
2023-01-21T15:19:34.631Z,3.53
2023-01-21T15:22:39.744Z,5.03
2023-01-21T15:25:31.519Z,6.35
2023-01-21T15:28:33.213Z,4.82
2023-01-21T15:31:03.312Z,2.75
2023-01-21T15:33:32.547Z,4.57
2023-01-21T15:36:02.954Z,2.95
2023-01-21T15:38:31.184Z,4.68
2023-01-21T15:41:04.931Z,8.40
2023-01-21T15:43:42.885Z,4.15
2023-01-21T15:46:27.067Z,6.43
2023-01-21T15:49:19.152Z,6.65
2023-01-21T15:52:01.774Z,6.20
2023-01-21T15:54:36.488Z,5.27
2023-01-21T15:57:21.747Z,6.72
2023-01-21T16:00:12.841Z,7.55
2023-01-21T16:02:53.249Z,8.05
2023-01-21T16:05:29.021Z,5.95
2023-01-21T16:08:08.333Z,5.28
2023-01-21T16:10:43.277Z,6.57
2023-01-21T16:13:17.982Z,12.98
2023-01-21T16:16:00.742Z,7.43
2023-01-21T16:18:35.556Z,5.15
2023-01-21T16:21:04.784Z,5.40
2023-01-21T16:23:41.542Z,5.55
2023-01-21T16:26:09.613Z,6.28
2023-01-21T16:28:46.189Z,9.65
2023-01-21T16:31:14.154Z,10.27
2023-01-21T16:33:43.030Z,5.00
2023-01-21T16:36:14.271Z,8.95
2023-01-21T16:38:45.649Z,5.00
2023-01-21T16:41:24.154Z,7.97
2023-01-21T16:43:55.361Z,5.53
2023-01-21T16:46:26.840Z,10.20
2023-01-21T16:48:57.367Z,8.55
2023-01-21T16:51:29.731Z,4.32
2023-01-21T16:54:30.119Z,7.90
2023-01-21T16:57:00.546Z,11.70
2023-01-21T16:59:31.217Z,6.40
2023-01-21T17:02:00.870Z,7.03
2023-01-21T17:04:30.221Z,6.40
2023-01-21T17:06:59.277Z,6.45
2023-01-21T17:09:32.116Z,7.57
2023-01-21T17:12:04.810Z,9.13
2023-01-21T17:14:34.411Z,6.35
2023-01-21T17:17:07.264Z,5.03
2023-01-21T17:19:38.058Z,5.80
2023-01-21T17:22:14.689Z,4.43
2023-01-21T17:25:00.337Z,6.18
2023-01-21T17:27:29.940Z,7.15
2023-01-21T17:30:18.261Z,6.50
2023-01-21T17:32:53.459Z,5.28
2023-01-21T17:35:23.830Z,8.52
2023-01-21T17:37:56.942Z,7.18
2023-01-21T17:40:28.858Z,6.40
2023-01-21T17:42:58.145Z,8.98
2023-01-21T17:45:31.136Z,5.72
2023-01-21T17:48:11.022Z,7.25
2023-01-21T17:50:46.031Z,4.47
2023-01-21T17:53:20.833Z,6.03
2023-01-21T17:56:00.210Z,5.93
2023-01-21T17:58:51.191Z,7.47
2023-01-21T18:01:20.233Z,6.53
2023-01-21T18:03:48.080Z,8.32
2023-01-21T18:06:21.876Z,6.20
2023-01-21T18:08:50.969Z,9.30
2023-01-21T18:11:19.211Z,8.32
2023-01-21T18:13:47.073Z,7.45
2023-01-21T18:16:16.654Z,5.75
2023-01-21T18:18:45.130Z,9.23
2023-01-21T18:21:20.928Z,5.32
2023-01-21T18:23:49.230Z,8.73
2023-01-21T18:26:27.970Z,12.75
2023-01-21T18:28:55.865Z,9.75
2023-01-21T18:31:25.296Z,6.78
2023-01-21T18:33:53.304Z,9.13
2023-01-21T18:36:21.380Z,10.43
2023-01-21T18:38:49.271Z,6.70
2023-01-21T18:41:17.108Z,5.75
2023-01-21T18:43:44.978Z,6.60
2023-01-21T18:46:13.783Z,6.20
2023-01-21T18:48:43.221Z,11.90
2023-01-21T18:51:11.300Z,8.98
2023-01-21T18:53:39.300Z,5.57
2023-01-21T18:56:13.638Z,10.85
2023-01-21T18:58:41.577Z,7.60
2023-01-21T19:01:21.971Z,9.23
2023-01-21T19:03:53.978Z,8.02
2023-01-21T19:06:24.589Z,4.05
2023-01-21T19:08:52.557Z,5.80
2023-01-21T19:11:20.488Z,7.30
2023-01-21T19:13:48.420Z,8.30
2023-01-21T19:16:18.956Z,5.10
2023-01-21T19:18:47.158Z,7.65
2023-01-21T19:21:16.466Z,6.47
2023-01-21T19:23:44.624Z,6.15
2023-01-21T19:26:14.832Z,7.13
2023-01-21T19:28:43.240Z,6.78
2023-01-21T19:31:11.318Z,5.75
2023-01-21T19:33:41.927Z,9.27
2023-01-21T19:36:15.997Z,9.60
2023-01-21T19:38:52.215Z,5.05
2023-01-21T19:41:20.106Z,9.25
2023-01-21T19:43:47.988Z,7.53
2023-01-21T19:46:16.113Z,5.38
2023-01-21T19:48:44.105Z,5.57
2023-01-21T19:51:12.196Z,6.40
2023-01-21T19:53:40.071Z,7.18
2023-01-21T19:56:17.442Z,5.32
2023-01-21T19:58:45.548Z,7.10
2023-01-21T20:01:13.626Z,6.03
2023-01-21T20:03:54.549Z,4.78
2023-01-21T20:06:26.934Z,8.23
2023-01-21T20:08:54.941Z,4.40
2023-01-21T20:11:24.193Z,6.15
2023-01-21T20:13:52.183Z,9.25
2023-01-21T20:16:21.022Z,5.97
2023-01-21T20:18:49.840Z,8.82
2023-01-21T20:21:18.051Z,6.80
2023-01-21T20:23:45.955Z,9.55
2023-01-21T20:26:17.801Z,9.02
2023-01-21T20:28:51.433Z,9.63
2023-01-21T20:31:19.887Z,9.45
2023-01-21T20:33:49.157Z,6.70
2023-01-21T20:36:21.022Z,6.47
2023-01-21T20:38:49.172Z,9.88
2023-01-21T20:41:17.264Z,6.00
2023-01-21T20:43:45.188Z,8.77
2023-01-21T20:46:18.282Z,8.10
2023-01-21T20:51:14.440Z,7.93
2023-01-21T20:53:42.357Z,6.35
2023-01-21T20:56:18.567Z,5.82
2023-01-21T20:58:47.969Z,5.55
2023-01-21T21:01:19.627Z,8.90
2023-01-21T21:03:47.838Z,5.25
2023-01-21T21:06:18.626Z,8.38
2023-01-21T21:08:47.173Z,7.22
2023-01-21T21:11:16.931Z,11.90
2023-01-21T21:13:47.639Z,7.50
2023-01-21T21:16:22.976Z,6.45
2023-01-21T21:18:51.303Z,6.25
2023-01-21T21:21:22.469Z,9.90
2023-01-21T21:23:52.292Z,8.27
2023-01-21T21:26:23.024Z,8.38
2023-01-21T21:28:54.615Z,6.72
2023-01-21T21:31:25.564Z,8.60
2023-01-21T21:33:53.763Z,11.48
2023-01-21T21:36:24.607Z,10.00
2023-01-21T21:38:55.737Z,8.73
2023-01-21T21:41:44.307Z,6.50
2023-01-21T21:44:13.082Z,8.15
2023-01-21T21:47:00.154Z,6.97
2023-01-21T21:49:28.777Z,5.05
2023-01-21T21:51:56.973Z,8.38
2023-01-21T21:54:24.968Z,6.75
2023-01-21T21:56:52.988Z,6.93
2023-01-21T21:59:21.047Z,6.65
2023-01-21T22:01:50.373Z,9.05
2023-01-21T22:04:18.265Z,5.97
2023-01-21T22:06:46.128Z,12.60
2023-01-21T22:09:14.433Z,6.30
2023-01-21T22:11:42.372Z,7.57
2023-01-21T22:14:10.238Z,7.45
2023-01-21T22:16:38.873Z,5.85
2023-01-21T22:19:08.239Z,5.75
2023-01-21T22:21:36.260Z,10.38
2023-01-21T22:24:06.807Z,5.75
2023-01-21T22:26:35.765Z,5.40
2023-01-21T22:29:04.245Z,3.80
2023-01-21T22:31:33.294Z,5.15
2023-01-21T22:34:01.888Z,5.72
2023-01-21T22:36:31.813Z,5.07
2023-01-21T22:39:00.396Z,4.85
2023-01-21T22:41:29.039Z,5.35
2023-01-21T22:43:57.041Z,6.75
2023-01-21T22:46:26.747Z,3.85
2023-01-21T22:48:55.387Z,6.60
2023-01-21T22:51:24.104Z,7.85
2023-01-21T22:53:54.438Z,5.60
2023-01-21T22:56:39.893Z,7.80
2023-01-21T22:59:12.492Z,7.35
2023-01-21T23:01:40.548Z,6.10
2023-01-21T23:04:08.494Z,3.30
2023-01-21T23:06:37.856Z,6.00
2023-01-21T23:09:09.561Z,5.70
2023-01-21T23:11:39.620Z,3.40
2023-01-21T23:14:08.975Z,4.72
2023-01-21T23:16:37.184Z,8.75
2023-01-21T23:19:05.082Z,6.20
2023-01-21T23:21:33.141Z,7.30
2023-01-21T23:24:01.039Z,7.63
2023-01-21T23:26:30.585Z,5.40
2023-01-21T23:28:58.785Z,7.13
2023-01-21T23:31:26.929Z,7.25
2023-01-21T23:33:57.173Z,7.10
2023-01-21T23:36:25.138Z,6.95
2023-01-21T23:38:53.023Z,6.22
2023-01-21T23:41:21.241Z,6.28
2023-01-21T23:43:50.712Z,7.32
2023-01-21T23:46:19.726Z,5.57
2023-01-21T23:48:47.940Z,10.25
2023-01-21T23:51:17.610Z,9.45
2023-01-21T23:53:45.927Z,4.97
2023-01-21T23:56:16.461Z,6.15
2023-01-21T23:58:44.439Z,5.22
